| time (UTC) | temp F | wind direction | speed MPH | gust MPH | rain 1hr in | rain 24hr in | rain mn in | humidity % | barometer mb |
| 20260506231543 | 56 | 0 | 0.0 | 0.0 | 0.00 | 0.66 | 0.54 | 70 | 1014.9 |
| 20260506230054 | 57 | 0 | 0.0 | 0.0 | 0.00 | 0.66 | 0.54 | 69 | 1014.8 |
| 20260506224550 | 57 | 0 | 0.0 | 0.0 | 0.00 | 0.78 | 0.54 | 70 | 1014.4 |
| 20260506223045 | 58 | 0 | 0.0 | 0.0 | 0.00 | 0.78 | 0.54 | 68 | 1014.2 |
| 20260506221555 | 58 | 0 | 0.0 | 2.0 | 0.00 | 0.78 | 0.54 | 70 | 1014.1 |
| 20260506220048 | 58 | 0 | 0.0 | 1.0 | 0.00 | 0.78 | 0.54 | 67 | 1014.0 |
| 20260506214544 | 58 | 191 | 0.0 | 1.0 | 0.00 | 0.78 | 0.54 | 66 | 1014.0 |
| 20260506213053 | 58 | 0 | 0.0 | 0.0 | 0.00 | 0.78 | 0.54 | 68 | 1014.2 |
| 20260506211553 | 59 | 0 | 0.0 | 0.0 | 0.00 | 0.78 | 0.54 | 70 | 1014.5 |
| 20260506210048 | 59 | 0 | 0.0 | 0.0 | 0.00 | 0.78 | 0.54 | 71 | 1014.4 |
| 20260506204547 | 60 | 194 | 0.0 | 1.0 | 0.00 | 0.79 | 0.54 | 67 | 1014.5 |
| 20260506203053 | 60 | 200 | 0.0 | 2.0 | 0.00 | 0.79 | 0.54 | 67 | 1014.3 |
| 20260506201543 | 60 | 0 | 0.0 | 4.0 | 0.00 | 0.79 | 0.54 | 67 | 1014.2 |
| 20260506200045 | 59 | 115 | 0.0 | 1.0 | 0.00 | 0.79 | 0.54 | 66 | 1014.4 |
| 20260506194546 | 59 | 151 | 0.0 | 4.0 | 0.00 | 0.93 | 0.54 | 67 | 1014.6 |
| 20260506193052 | 60 | 82 | 1.0 | 5.0 | 0.00 | 0.93 | 0.54 | 65 | 1014.5 |
| 20260506191543 | 60 | 175 | 1.0 | 3.0 | 0.00 | 0.93 | 0.54 | 64 | 1014.1 |
| 20260506190050 | 60 | 121 | 0.0 | 2.0 | 0.00 | 0.93 | 0.54 | 67 | 1014.5 |
| 20260506184547 | 61 | 172 | 1.0 | 4.0 | 0.00 | 1.12 | 0.54 | 64 | 1014.4 |
| 20260506183051 | 62 | 122 | 1.0 | 2.0 | 0.00 | 1.12 | 0.54 | 66 | 1014.1 |
| 20260506181557 | 61 | 195 | 1.0 | 3.0 | 0.00 | 1.12 | 0.54 | 64 | 1014.0 |
| 20260506180044 | 61 | 0 | 1.0 | 5.0 | 0.00 | 1.12 | 0.54 | 66 | 1013.9 |
| 20260506174543 | 61 | 125 | 0.0 | 2.0 | 0.00 | 1.12 | 0.54 | 69 | 1013.8 |
| 20260506173113 | 60 | 61 | 1.0 | 6.0 | 0.00 | 1.12 | 0.54 | 71 | 1014.0 |
| 20260506171547 | 60 | 109 | 0.0 | 1.0 | 0.00 | 1.12 | 0.54 | 69 | 1014.1 |
| 20260506164543 | 59 | 169 | 1.0 | 5.0 | 0.00 | 1.12 | 0.54 | 68 | 1014.4 |
| 20260506163053 | 58 | 165 | 0.0 | 4.0 | 0.00 | 1.12 | 0.54 | 75 | 1014.6 |
| 20260506161546 | 56 | 199 | 1.0 | 5.0 | 0.00 | 1.12 | 0.54 | 76 | 1014.5 |
| 20260506160047 | 55 | 131 | 0.0 | 5.0 | 0.00 | 1.12 | 0.54 | 86 | 1014.6 |
| 20260506154606 | 54 | 150 | 0.0 | 4.0 | 0.00 | 1.12 | 0.54 | 90 | 1014.4 |
| 20260506153041 | 53 | 164 | 0.0 | 3.0 | 0.00 | 1.12 | 0.54 | 90 | 1014.0 |
| 20260506151547 | 52 | 190 | 1.0 | 3.0 | 0.00 | 1.12 | 0.54 | 91 | 1014.1 |
| 20260506150044 | 52 | 0 | 0.0 | 3.0 | 0.00 | 1.12 | 0.54 | 92 | 1014.0 |
| 20260506144551 | 51 | 0 | 0.0 | 2.0 | 0.00 | 1.12 | 0.54 | 92 | 1014.0 |
| 20260506143044 | 49 | 86 | 0.0 | 2.0 | 0.00 | 1.12 | 0.54 | 92 | 1013.9 |
| 20260506141544 | 49 | 153 | 0.0 | 4.0 | 0.00 | 1.12 | 0.54 | 92 | 1013.6 |
| 20260506140043 | 48 | 184 | 0.0 | 2.0 | 0.00 | 1.12 | 0.54 | 93 | 1013.2 |
| 20260506134550 | 47 | 98 | 0.0 | 2.0 | 0.00 | 1.12 | 0.54 | 93 | 1013.0 |
| 20260506133058 | 46 | 207 | 0.0 | 2.0 | 0.00 | 1.12 | 0.54 | 93 | 1013.3 |
| 20260506131545 | 46 | 191 | 0.0 | 2.0 | 0.00 | 1.12 | 0.54 | 93 | 1012.9 |
| 20260506130047 | 46 | 0 | 0.0 | 1.0 | 0.00 | 1.12 | 0.54 | 93 | 1012.9 |
| 20260506124549 | 45 | 0 | 0.0 | 2.0 | 0.00 | 1.12 | 0.54 | 93 | 1012.9 |
| 20260506123047 | 45 | 0 | 0.0 | 2.0 | 0.00 | 1.12 | 0.54 | 92 | 1012.8 |
| 20260506121547 | 45 | 0 | 0.0 | 1.0 | 0.00 | 1.12 | 0.54 | 93 | 1012.5 |
| 20260506120046 | 45 | 0 | 0.0 | 1.0 | 0.00 | 1.12 | 0.54 | 93 | 1013.0 |
| 20260506114549 | 45 | 0 | 0.0 | 0.0 | 0.00 | 1.12 | 0.54 | 93 | 1012.3 |
| 20260506113049 | 44 | 0 | 0.0 | 0.0 | 0.00 | 1.12 | 0.54 | 92 | 1012.1 |
| 20260506111547 | 44 | 0 | 0.0 | 2.0 | 0.00 | 1.12 | 0.54 | 92 | 1011.8 |
| 20260506110047 | 44 | 187 | 0.0 | 2.0 | 0.00 | 1.12 | 0.54 | 92 | 1011.4 |
| 20260506104608 | 45 | 139 | 0.0 | 0.0 | 0.00 | 1.12 | 0.54 | 92 | 1011.6 |
| 20260506103050 | 45 | 179 | 0.0 | 2.0 | 0.00 | 1.12 | 0.54 | 92 | 1011.1 |
| 20260506101548 | 46 | 183 | 0.0 | 1.0 | 0.00 | 1.12 | 0.54 | 92 | 1010.8 |
| 20260506100046 | 46 | 0 | 0.0 | 1.0 | 0.00 | 1.12 | 0.54 | 92 | 1010.8 |
| 20260506094546 | 47 | 0 | 0.0 | 2.0 | 0.00 | 1.12 | 0.54 | 92 | 1010.0 |
| 20260506093046 | 47 | 179 | 0.0 | 3.0 | 0.00 | 1.12 | 0.54 | 92 | 1009.9 |
| 20260506091542 | 47 | 209 | 0.0 | 3.0 | 0.00 | 1.12 | 0.54 | 92 | 1009.9 |
| 20260506090050 | 47 | 212 | 1.0 | 3.0 | 0.00 | 1.12 | 0.54 | 92 | 1009.5 |
| 20260506084543 | 48 | 0 | 0.0 | 2.0 | 0.02 | 1.12 | 0.54 | 92 | 1010.0 |
| 20260506083050 | 48 | 68 | 0.0 | 3.0 | 0.02 | 1.12 | 0.54 | 92 | 1009.9 |
| 20260506081556 | 48 | 0 | 1.0 | 4.0 | 0.03 | 1.12 | 0.54 | 92 | 1009.1 |
| 20260506073047 | 50 | 0 | 0.0 | 3.0 | 0.08 | 1.10 | 0.52 | 92 | 1008.3 |
| 20260506071543 | 50 | 0 | 0.0 | 3.0 | 0.09 | 1.09 | 0.51 | 92 | 1008.0 |
| 20260506061543 | 52 | 158 | 0.0 | 0.0 | 0.08 | 0.99 | 0.41 | 91 | 1008.0 |
| 20260506044600 | 58 | 120 | 0.0 | 1.0 | 0.31 | 0.86 | 0.28 | 91 | 1007.5 |
| 20260506043053 | 58 | 0 | 0.0 | 1.0 | 0.19 | 0.74 | 0.16 | 91 | 1007.6 |
| 20260506041547 | 58 | 0 | 0.0 | 1.0 | 0.12 | 0.66 | 0.08 | 91 | 1007.4 |
| 20260506040050 | 58 | 0 | 0.0 | 1.0 | 0.04 | 0.58 | 0.00 | 91 | 1007.5 |
| 20260506034557 | 59 | 119 | 0.0 | 1.0 | 0.01 | 0.55 | 0.55 | 91 | 1007.3 |
| 20260506033047 | 59 | 83 | 0.0 | 2.0 | 0.02 | 0.55 | 0.55 | 91 | 1007.7 |
| 20260506031547 | 59 | 71 | 0.0 | 3.0 | 0.01 | 0.54 | 0.54 | 91 | 1007.9 |
| 20260506030046 | 59 | 77 | 0.0 | 2.0 | 0.01 | 0.54 | 0.54 | 91 | 1008.1 |
| 20260506024545 | 60 | 96 | 1.0 | 3.0 | 0.01 | 0.54 | 0.54 | 91 | 1008.1 |
| 20260506023046 | 59 | 0 | 0.0 | 1.0 | 0.00 | 0.52 | 0.52 | 91 | 1008.3 |
| 20260506021554 | 59 | 0 | 0.0 | 0.0 | 0.00 | 0.52 | 0.52 | 91 | 1008.2 |
| 20260506020044 | 59 | 0 | 0.0 | 0.0 | 0.00 | 0.52 | 0.52 | 91 | 1008.1 |
| 20260506014543 | 59 | 0 | 0.0 | 0.0 | 0.00 | 0.52 | 0.52 | 91 | 1007.9 |
| 20260506013045 | 59 | 0 | 0.0 | 0.0 | 0.00 | 0.52 | 0.52 | 91 | 1007.8 |
| 20260506011552 | 59 | 0 | 0.0 | 0.0 | 0.01 | 0.52 | 0.52 | 91 | 1007.5 |
| 20260506010056 | 59 | 0 | 0.0 | 0.0 | 0.01 | 0.52 | 0.52 | 90 | 1007.5 |
| 20260506004544 | 59 | 0 | 0.0 | 0.0 | 0.01 | 0.52 | 0.52 | 90 | 1007.3 |
| 20260506003046 | 59 | 0 | 0.0 | 0.0 | 0.02 | 0.52 | 0.52 | 90 | 1007.4 |
| 20260506001546 | 60 | 0 | 0.0 | 0.0 | 0.03 | 0.52 | 0.52 | 90 | 1007.8 |
| 20260506000046 | 60 | 0 | 0.0 | 0.0 | 0.06 | 0.52 | 0.52 | 90 | 1007.5 |
| 20260505234606 | 60 | 0 | 0.0 | 0.0 | 0.09 | 0.52 | 0.52 | 90 | 1007.7 |
| 20260505233048 | 61 | 0 | 0.0 | 0.0 | 0.14 | 0.51 | 0.51 | 90 | 1007.8 |